Zim Vancouver — A8LK5 — position and weather

sailwx.info

Track history (hours):
 
Tides and Currents Weather Stations Pressure Air Temp Water Temp Dewpoint Dewpoint Depression Visibility Wind Speed Wind Dir Waves Ship Positions

Zim Vancouver

Last reported at 2016-Dec-08 17:25 UTC. Time now 2016-Dec-08 18:12 UTC.
Position N 32°08' W 081°08'.

Length 260 m; draft 9.9 m.

Type: Ship. MMSI: 636013214.

Date/timePositionNaut miles runAvg speedWind from/ knotsBaromVisibWave heightAir tempDewpointWater temp
2016-Dec-08 17:25N 32°08' W 081°08'0 0.0
2016-Dec-08 16:31N 32°08' W 081°08'0 0.0
2016-Dec-08 15:31N 32°08' W 081°08'4 4.2
2016-Dec-08 14:33N 32°05' W 081°05'8 7.6
2016-Dec-08 13:33N 32°03' W 080°56'1211.6
2016-Dec-08 12:33N 31°58' W 080°44'7 6.9
2016-Dec-08 11:33N 31°57' W 080°35'1 0.7
2016-Dec-08 10:32N 31°57' W 080°35'0 0.0
2016-Dec-08 09:32N 31°57' W 080°35'0 0.0
2016-Dec-08 08:26N 31°57' W 080°35'0 0.0
2016-Dec-08 07:32N 31°57' W 080°35'0 0.0
2016-Dec-08 00:20N 31°57' W 080°35'0 0.0
2016-Dec-07 20:08N 31°57' W 080°35'0 0.1
2016-Dec-07 19:26N 31°57' W 080°35'0 0.0
2016-Dec-07 18:32N 31°57' W 080°35'0 0.0
2016-Dec-07 17:14N 31°57' W 080°35'0 0.0
2016-Dec-07 16:32N 31°57' W 080°35'0 0.0
2016-Dec-07 15:14N 31°57' W 080°35'0 0.0
2016-Dec-07 14:32N 31°57' W 080°35'0 0.1
2016-Dec-07 13:26N 31°57' W 080°35'0 0.1
2016-Dec-07 11:26N 31°57' W 080°35'0 0.0
2016-Dec-07 07:26N 31°57' W 080°35'0 0.1
2016-Dec-07 06:32N 31°57' W 080°35'0 0.4
2016-Dec-07 05:33N 31°57' W 080°35'7 7.3
2016-Dec-07 04:33N 31°59' W 080°27'  
2016-Dec-05 00:32N 36°52' W 075°52'9 8.9
2016-Dec-04 23:32N 36°57' W 076°01'1614.4
2016-Dec-04 22:27N 36°58' W 076°20'5 4.6
2016-Dec-04 21:17N 36°53' W 076°21'0 0.0
2016-Dec-04 20:32N 36°53' W 076°21'0 0.0
2016-Dec-04 18:32N 36°53' W 076°21'0 0.0
2016-Dec-04 17:32N 36°53' W 076°21'0 0.0
2016-Dec-04 16:32N 36°53' W 076°21'0 0.0
2016-Dec-04 15:26N 36°53' W 076°21'0 0.0
2016-Dec-04 14:32N 36°53' W 076°21'0 0.0
2016-Dec-04 13:32N 36°53' W 076°21'0 0.0
2016-Dec-04 12:08N 36°53' W 076°21'0 0.0
2016-Dec-04 11:33N 36°53' W 076°21'6 5.8
2016-Dec-04 10:34N 36°58' W 076°20'1313.4
2016-Dec-04 09:33N 36°58' W 076°03'9 8.5
2016-Dec-04 08:29N 36°54' W 075°53'17911.9
2016-Dec-03 17:33N 39°27' W 073°58'1413.7
2016-Dec-03 16:33N 39°41' W 073°53'1413.9
2016-Dec-03 15:34N 39°54' W 073°51'3311.0
2016-Dec-03 12:33N 40°27' W 073°50'1111.0
2016-Dec-03 11:33N 40°34' W 074°02'8 7.6
2016-Dec-03 10:34N 40°39' W 074°09'1 1.0
2016-Dec-03 09:31N 40°40' W 074°09'0 0.0
2016-Dec-03 08:31N 40°40' W 074°09'0 0.0
2016-Dec-03 07:31N 40°40' W 074°09'0 0.0
2016-Dec-03 06:31N 40°40' W 074°09'0 0.0
2016-Dec-03 05:31N 40°40' W 074°09'0 0.0
2016-Dec-03 04:31N 40°40' W 074°09'0 0.0
2016-Dec-03 03:31N 40°40' W 074°09'0 0.0
2016-Dec-03 02:31N 40°40' W 074°09'0 0.0
2016-Dec-03 01:31N 40°40' W 074°09'0 0.0
2016-Dec-03 00:31N 40°40' W 074°09'0 0.0
2016-Dec-02 23:31N 40°40' W 074°09'0 0.0
2016-Dec-02 22:31N 40°40' W 074°09'0 0.0
2016-Dec-02 21:31N 40°40' W 074°09'0 0.0
2016-Dec-02 20:31N 40°40' W 074°09'0 0.0
2016-Dec-02 19:31N 40°40' W 074°09'0 0.0
2016-Dec-02 18:31N 40°40' W 074°09'0 0.0
2016-Dec-02 17:31N 40°40' W 074°09'0 0.0
2016-Dec-02 16:31N 40°40' W 074°09'0 0.0
2016-Dec-02 15:31N 40°40' W 074°09'0 0.0
2016-Dec-02 14:31N 40°40' W 074°09'0 0.0
2016-Dec-02 13:31N 40°40' W 074°09'0 0.0
2016-Dec-02 12:31N 40°40' W 074°09'0 0.0
2016-Dec-02 11:31N 40°40' W 074°09'1 1.3
2016-Dec-02 10:33N 40°39' W 074°09'7 6.7
2016-Dec-02 09:33N 40°35' W 074°02'1111.3
2016-Dec-02 08:33N 40°28' W 073°50'9 7.8
2016-Dec-02 07:26N 40°27' W 073°39'  
Track history (hours):
 
Tides and Currents Weather Stations Pressure Air Temp Water Temp Dewpoint Dewpoint Depression Visibility Wind Speed Wind Dir Waves Ship Positions

Zim Vancouver

Last reported at 2016-Dec-08 17:25 UTC. Time now 2016-Dec-08 18:12 UTC.
Position N 32°08' W 081°08'.

Length 260 m; draft 9.9 m.

Type: Ship. MMSI: 636013214.

Date/timePositionNaut miles runAvg speedWind from/ knotsBaromVisibWave heightAir tempDewpointWater temp
2016-Dec-08 17:25N 32°08' W 081°08'0 0.0
2016-Dec-08 16:31N 32°08' W 081°08'0 0.0
2016-Dec-08 15:31N 32°08' W 081°08'4 4.2
2016-Dec-08 14:33N 32°05' W 081°05'8 7.6
2016-Dec-08 13:33N 32°03' W 080°56'1211.6
2016-Dec-08 12:33N 31°58' W 080°44'7 6.9
2016-Dec-08 11:33N 31°57' W 080°35'1 0.7
2016-Dec-08 10:32N 31°57' W 080°35'0 0.0
2016-Dec-08 09:32N 31°57' W 080°35'0 0.0
2016-Dec-08 08:26N 31°57' W 080°35'0 0.0
2016-Dec-08 07:32N 31°57' W 080°35'0 0.0
2016-Dec-08 00:20N 31°57' W 080°35'0 0.0
2016-Dec-07 20:08N 31°57' W 080°35'0 0.1
2016-Dec-07 19:26N 31°57' W 080°35'0 0.0
2016-Dec-07 18:32N 31°57' W 080°35'0 0.0
2016-Dec-07 17:14N 31°57' W 080°35'0 0.0
2016-Dec-07 16:32N 31°57' W 080°35'0 0.0
2016-Dec-07 15:14N 31°57' W 080°35'0 0.0
2016-Dec-07 14:32N 31°57' W 080°35'0 0.1
2016-Dec-07 13:26N 31°57' W 080°35'0 0.1
2016-Dec-07 11:26N 31°57' W 080°35'0 0.0
2016-Dec-07 07:26N 31°57' W 080°35'0 0.1
2016-Dec-07 06:32N 31°57' W 080°35'0 0.4
2016-Dec-07 05:33N 31°57' W 080°35'7 7.3
2016-Dec-07 04:33N 31°59' W 080°27'  
2016-Dec-05 00:32N 36°52' W 075°52'9 8.9
2016-Dec-04 23:32N 36°57' W 076°01'1614.4
2016-Dec-04 22:27N 36°58' W 076°20'5 4.6
2016-Dec-04 21:17N 36°53' W 076°21'0 0.0
2016-Dec-04 20:32N 36°53' W 076°21'0 0.0
2016-Dec-04 18:32N 36°53' W 076°21'0 0.0
2016-Dec-04 17:32N 36°53' W 076°21'0 0.0
2016-Dec-04 16:32N 36°53' W 076°21'0 0.0
2016-Dec-04 15:26N 36°53' W 076°21'0 0.0
2016-Dec-04 14:32N 36°53' W 076°21'0 0.0
2016-Dec-04 13:32N 36°53' W 076°21'0 0.0
2016-Dec-04 12:08N 36°53' W 076°21'0 0.0
2016-Dec-04 11:33N 36°53' W 076°21'6 5.8
2016-Dec-04 10:34N 36°58' W 076°20'1313.4
2016-Dec-04 09:33N 36°58' W 076°03'9 8.5
2016-Dec-04 08:29N 36°54' W 075°53'17911.9
2016-Dec-03 17:33N 39°27' W 073°58'1413.7
2016-Dec-03 16:33N 39°41' W 073°53'1413.9
2016-Dec-03 15:34N 39°54' W 073°51'3311.0
2016-Dec-03 12:33N 40°27' W 073°50'1111.0
2016-Dec-03 11:33N 40°34' W 074°02'8 7.6
2016-Dec-03 10:34N 40°39' W 074°09'1 1.0
2016-Dec-03 09:31N 40°40' W 074°09'0 0.0
2016-Dec-03 08:31N 40°40' W 074°09'0 0.0
2016-Dec-03 07:31N 40°40' W 074°09'0 0.0
2016-Dec-03 06:31N 40°40' W 074°09'0 0.0
2016-Dec-03 05:31N 40°40' W 074°09'0 0.0
2016-Dec-03 04:31N 40°40' W 074°09'0 0.0
2016-Dec-03 03:31N 40°40' W 074°09'0 0.0
2016-Dec-03 02:31N 40°40' W 074°09'0 0.0
2016-Dec-03 01:31N 40°40' W 074°09'0 0.0
2016-Dec-03 00:31N 40°40' W 074°09'0 0.0
2016-Dec-02 23:31N 40°40' W 074°09'0 0.0
2016-Dec-02 22:31N 40°40' W 074°09'0 0.0
2016-Dec-02 21:31N 40°40' W 074°09'0 0.0
2016-Dec-02 20:31N 40°40' W 074°09'0 0.0
2016-Dec-02 19:31N 40°40' W 074°09'0 0.0
2016-Dec-02 18:31N 40°40' W 074°09'0 0.0
2016-Dec-02 17:31N 40°40' W 074°09'0 0.0
2016-Dec-02 16:31N 40°40' W 074°09'0 0.0
2016-Dec-02 15:31N 40°40' W 074°09'0 0.0
2016-Dec-02 14:31N 40°40' W 074°09'0 0.0
2016-Dec-02 13:31N 40°40' W 074°09'0 0.0
2016-Dec-02 12:31N 40°40' W 074°09'0 0.0
2016-Dec-02 11:31N 40°40' W 074°09'1 1.3
2016-Dec-02 10:33N 40°39' W 074°09'7 6.7
2016-Dec-02 09:33N 40°35' W 074°02'1111.3
2016-Dec-02 08:33N 40°28' W 073°50'9 7.8
2016-Dec-02 07:26N 40°27' W 073°39'  

Dump ship's entire track history